Time;durP1;ratioP1;P1;durP2;ratioP2;P2;SDS_P1;SDS_P2;PMS_P1;PMS_P2;Temp;Humidity;BMP_temperature;BMP_pressure;BME280_temperature;BME280_humidity;BME280_pressure;Samples;Min_cycle;Max_cycle;Signal;HPM_P1;HPM_P2
2021/12/03 00:00:07;;;;;;;5.82;2.00;;;1.80;99.90;;;;;;6164046;23;20013;-81
2021/12/03 00:02:33;;;;;;;9.38;2.00;;;1.80;99.90;;;;;;6188607;23;20041;-81
2021/12/03 00:04:59;;;;;;;8.15;2.00;;;1.80;99.90;;;;;;6164902;23;20014;-81
2021/12/03 00:07:27;;;;;;;7.40;2.05;;;3.10;99.90;;;;;;6116104;23;20060;-82
2021/12/03 00:09:53;;;;;;;6.85;2.00;;;3.20;99.90;;;;;;6188122;23;20016;-81
2021/12/03 00:12:19;;;;;;;6.30;1.83;;;2.90;99.90;;;;;;6169133;23;20020;-82
2021/12/03 00:14:45;;;;;;;7.22;2.08;;;2.10;99.90;;;;;;6168835;23;20240;-82
2021/12/03 00:17:11;;;;;;;13.50;2.20;;;1.70;99.90;;;;;;6096125;23;20016;-82
2021/12/03 00:19:36;;;;;;;7.70;1.92;;;1.80;99.90;;;;;;6195022;23;20183;-83
2021/12/03 00:22:02;;;;;;;8.88;1.90;;;1.80;99.90;;;;;;6169101;23;20065;-82
2021/12/03 00:24:28;;;;;;;6.38;1.88;;;1.80;99.90;;;;;;6144116;23;20009;-83
2021/12/03 00:26:54;;;;;;;13.63;2.22;;;1.80;99.90;;;;;;6169136;23;20012;-83
2021/12/03 00:29:20;;;;;;;6.13;2.10;;;1.90;99.90;;;;;;6112224;23;20013;-83
2021/12/03 00:31:51;;;;;;;8.27;2.00;;;1.90;99.90;;;;;;6168458;23;20009;-83
2021/12/03 00:34:17;;;;;;;8.15;1.73;;;1.90;99.90;;;;;;6143681;23;20013;-82
2021/12/03 00:36:43;;;;;;;8.23;2.00;;;3.00;99.90;;;;;;6143586;23;20051;-83
2021/12/03 00:39:09;;;;;;;10.52;2.00;;;2.00;99.90;;;;;;6168132;23;20032;-82
2021/12/03 00:41:44;;;;;;;5.85;1.90;;;3.70;99.90;;;;;;6132270;23;20457;-82
2021/12/03 00:44:13;;;;;;;7.28;2.08;;;2.00;99.90;;;;;;6133389;23;20023;-83
2021/12/03 00:46:39;;;;;;;9.18;2.28;;;1.90;99.90;;;;;;6155961;23;20013;-83
2021/12/03 00:49:06;;;;;;;9.30;2.13;;;2.50;99.90;;;;;;6130980;23;20041;-81
2021/12/03 00:51:31;;;;;;;7.85;2.15;;;1.80;99.90;;;;;;6155690;23;20028;-82
2021/12/03 00:53:58;;;;;;;7.50;1.90;;;;;;;;;;6130589;23;20017;-82
2021/12/03 00:56:24;;;;;;;9.60;2.10;;;1.90;99.90;;;;;;6155733;23;20112;-83
2021/12/03 00:58:50;;;;;;;11.93;2.20;;;1.90;99.90;;;;;;6106447;23;20067;-84
2021/12/03 01:01:19;;;;;;;10.27;2.20;;;3.90;99.90;;;;;;6155146;23;20096;-83
2021/12/03 01:03:45;;;;;;;7.90;2.20;;;1.90;99.90;;;;;;6106454;23;20336;-83
2021/12/03 01:06:11;;;;;;;8.15;2.67;;;2.80;99.90;;;;;;6155661;23;20013;-83
2021/12/03 01:08:37;;;;;;;12.23;2.47;;;1.80;99.90;;;;;;6182282;23;20148;-82
2021/12/03 01:11:06;;;;;;;10.50;2.25;;;1.80;99.90;;;;;;6130463;23;20579;-82
2021/12/03 01:13:34;;;;;;;10.50;2.92;;;1.80;99.90;;;;;;6155596;23;20405;-84
2021/12/03 01:15:59;;;;;;;9.13;2.67;;;3.00;99.90;;;;;;6130619;23;20020;-81
2021/12/03 01:18:25;;;;;;;7.55;2.75;;;1.80;99.90;;;;;;6155324;23;20017;-81
2021/12/03 01:20:51;;;;;;;8.00;2.20;;;2.90;99.90;;;;;;6106322;23;20031;-82
2021/12/03 01:23:17;;;;;;;11.48;2.50;;;1.80;99.90;;;;;;6154891;23;20017;-82
2021/12/03 01:25:43;;;;;;;8.05;2.30;;;1.80;99.90;;;;;;6155423;23;20028;-83
2021/12/03 01:28:12;;;;;;;10.20;2.25;;;1.80;99.90;;;;;;6130294;23;20076;-82
2021/12/03 01:30:41;;;;;;;10.52;2.70;;;1.80;99.90;;;;;;6155440;23;20024;-84
2021/12/03 01:33:07;;;;;;;9.57;2.40;;;1.40;99.90;;;;;;6155134;23;20017;-81
2021/12/03 01:35:35;;;;;;;8.50;2.25;;;1.80;99.90;;;;;;6105276;23;20021;-82
2021/12/03 01:38:05;;;;;;;8.07;2.20;;;1.80;99.90;;;;;;6106316;23;20013;-82
2021/12/03 01:40:33;;;;;;;6.38;2.10;;;1.80;99.90;;;;;;6181285;23;20027;-82
2021/12/03 01:43:00;;;;;;;6.43;2.08;;;1.80;99.90;;;;;;6131144;23;20009;-82
2021/12/03 01:45:31;;;;;;;8.60;2.30;;;1.80;99.90;;;;;;6154780;23;20036;-82
2021/12/03 01:47:58;;;;;;;8.02;2.10;;;1.30;99.90;;;;;;6181538;23;20060;-82
2021/12/03 01:50:40;;;;;;;6.95;2.00;;;2.20;99.90;;;;;;6154921;23;20088;-81
2021/12/03 01:53:09;;;;;;;9.35;2.30;;;1.90;99.90;;;;;;6154886;23;20021;-82
2021/12/03 01:55:36;;;;;;;12.52;2.50;;;1.90;99.90;;;;;;6181463;23;20009;-83
2021/12/03 01:58:03;;;;;;;7.93;2.13;;;1.90;99.90;;;;;;6155452;23;20453;-82
2021/12/03 02:00:36;;;;;;;10.50;2.28;;;3.40;99.90;;;;;;6181061;23;20020;-82
2021/12/03 02:03:04;;;;;;;;;;;1.90;99.90;;;;;;6131485;23;20472;-83
2021/12/03 02:05:30;;;;;;;9.20;2.20;;;3.20;99.90;;;;;;6154809;23;19912;-81
2021/12/03 02:07:56;;;;;;;9.60;1.92;;;1.90;99.90;;;;;;6130339;23;20457;-82
2021/12/03 02:10:23;;;;;;;8.48;2.67;;;2.00;99.90;;;;;;6180553;23;20532;-82
2021/12/03 02:12:50;;;;;;;8.15;2.05;;;2.00;99.90;;;;;;6130528;23;20388;-83
2021/12/03 02:15:16;;;;;;;6.28;2.00;;;3.10;99.90;;;;;;6179366;23;20017;-81
2021/12/03 02:17:42;;;;;;;7.80;2.20;;;2.00;99.90;;;;;;6130192;23;20088;-82
2021/12/03 02:20:12;;;;;;;6.28;1.70;;;1.90;99.90;;;;;;6130563;23;20036;-82
2021/12/03 02:22:39;;;;;;;7.75;2.45;;;2.80;99.90;;;;;;6154409;23;20020;-82
2021/12/03 02:25:08;;;;;;;6.38;1.80;;;1.90;99.90;;;;;;6129402;23;20453;-82
2021/12/03 02:27:34;;;;;;;6.95;1.98;;;1.80;99.90;;;;;;6154323;23;20372;-83
2021/12/03 02:30:00;;;;;;;7.50;2.20;;;1.50;99.90;;;;;;6105415;23;20108;-82
2021/12/03 02:32:26;;;;;;;8.80;2.20;;;0.40;99.90;;;;;;6154859;23;20095;-82
2021/12/03 02:34:52;;;;;;;7.35;2.47;;;1.70;99.90;;;;;;6105041;23;20044;-82
2021/12/03 02:37:18;;;;;;;7.72;2.08;;;1.90;99.90;;;;;;6155164;23;20020;-82
2021/12/03 02:39:44;;;;;;;6.75;2.00;;;2.20;99.90;;;;;;6180166;23;20330;-82
2021/12/03 02:42:10;;;;;;;7.40;2.10;;;2.00;99.90;;;;;;6105557;23;20433;-81
2021/12/03 02:44:36;;;;;;;8.52;2.10;;;3.30;99.90;;;;;;6129887;23;20013;-82
2021/12/03 02:47:03;;;;;;;9.15;2.35;;;2.00;99.90;;;;;;6105510;23;20558;-83
2021/12/03 02:49:38;;;;;;;7.85;2.10;;;1.90;99.90;;;;;;6129890;23;20399;-82
2021/12/03 02:52:05;;;;;;;10.85;2.97;;;0.80;99.90;;;;;;6154854;23;20040;-82
2021/12/03 02:54:31;;;;;;;9.40;2.42;;;1.80;99.90;;;;;;6129598;23;20035;-82
2021/12/03 02:56:57;;;;;;;11.32;2.97;;;3.80;99.90;;;;;;6130127;23;20092;-84
2021/12/03 02:59:23;;;;;;;9.50;2.78;;;3.10;99.90;;;;;;6155992;23;20059;-82
2021/12/03 03:01:49;;;;;;;10.43;3.20;;;2.10;99.90;;;;;;6157313;23;20009;-82
2021/12/03 03:04:14;;;;;;;11.02;3.20;;;2.50;99.90;;;;;;6108733;23;20103;-82
2021/12/03 03:06:41;;;;;;;9.73;3.20;;;3.80;99.90;;;;;;6109090;23;20581;-83
2021/12/03 03:09:10;;;;;;;11.18;3.13;;;1.90;99.90;;;;;;6109069;23;20471;-84
2021/12/03 03:11:37;;;;;;;10.95;3.70;;;2.10;99.90;;;;;;6158150;23;20017;-83
2021/12/03 03:14:04;;;;;;;9.25;3.72;;;3.10;99.90;;;;;;6184434;23;20055;-82
2021/12/03 03:16:31;;;;;;;10.85;3.72;;;2.10;99.90;;;;;;6184657;23;20017;-83
2021/12/03 03:19:08;;;;;;;15.35;4.35;;;3.20;99.90;;;;;;6157232;23;20013;-83
2021/12/03 03:21:34;;;;;;;13.27;4.97;;;3.20;99.90;;;;;;6132976;23;20519;-83
2021/12/03 03:24:00;;;;;;;13.73;4.93;;;3.80;99.90;;;;;;6108841;23;20017;-82
2021/12/03 03:26:26;;;;;;;11.82;5.10;;;2.20;99.90;;;;;;6158287;23;20495;-83
2021/12/03 03:28:56;;;;;;;18.80;5.90;;;3.50;99.90;;;;;;6158229;23;20151;-83
2021/12/03 03:31:22;;;;;;;13.27;6.38;;;2.20;99.90;;;;;;6182521;23;20674;-84
2021/12/03 03:33:47;;;;;;;16.08;6.82;;;3.50;99.90;;;;;;6158608;23;20029;-82
2021/12/03 03:36:14;;;;;;;15.98;7.47;;;;;;;;;;6132876;23;20012;-83
2021/12/03 03:38:42;;;;;;;15.50;7.65;;;2.20;99.90;;;;;;6158028;23;20013;-83
2021/12/03 03:41:08;;;;;;;17.63;8.65;;;2.30;99.90;;;;;;6157809;23;20104;-83
2021/12/03 03:43:34;;;;;;;16.58;8.60;;;3.50;99.90;;;;;;6133216;23;20013;-83
2021/12/03 03:46:00;;;;;;;19.45;8.80;;;3.40;99.90;;;;;;6181996;23;20115;-83
2021/12/03 03:48:26;;;;;;;17.13;9.90;;;2.30;99.90;;;;;;6109624;23;20060;-83
2021/12/03 03:50:52;;;;;;;17.55;10.00;;;2.30;99.90;;;;;;6157630;23;20017;-82
2021/12/03 03:53:18;;;;;;;21.20;10.23;;;;;;;;;;6133335;23;20016;-84
2021/12/03 03:55:45;;;;;;;20.65;11.32;;;2.40;99.90;;;;;;6157219;23;20044;-84
2021/12/03 03:58:14;;;;;;;20.50;11.90;;;;;;;;;;6133423;23;20017;-83
2021/12/03 04:00:43;;;;;;;23.70;12.95;;;2.30;99.90;;;;;;6157409;23;20024;-83
2021/12/03 04:03:10;;;;;;;22.35;13.05;;;2.40;99.90;;;;;;6133442;23;20093;-83
2021/12/03 04:05:39;;;;;;;23.48;13.57;;;2.30;99.90;;;;;;6157361;23;20045;-83
2021/12/03 04:08:06;;;;;;;22.83;13.70;;;2.50;99.90;;;;;;6157617;23;20017;-82
2021/12/03 04:10:33;;;;;;;22.02;13.75;;;2.40;99.90;;;;;;6156737;23;20114;-83
2021/12/03 04:13:02;;;;;;;23.02;14.70;;;2.40;99.90;;;;;;6155989;23;20107;-83
2021/12/03 04:15:28;;;;;;;22.05;14.30;;;;;;;;;;6180931;23;20445;-83
2021/12/03 04:17:54;;;;;;;22.00;13.93;;;;;;;;;;6155987;23;20092;-83
2021/12/03 04:20:23;;;;;;;22.23;14.27;;;2.30;99.90;;;;;;6182159;23;20076;-82
2021/12/03 04:22:50;;;;;;;25.10;15.40;;;2.40;99.90;;;;;;6131432;23;20410;-83
2021/12/03 04:25:20;;;;;;;23.05;14.55;;;2.30;99.90;;;;;;6131404;23;20576;-83
2021/12/03 04:27:50;;;;;;;24.05;14.35;;;2.30;99.90;;;;;;6181891;23;20024;-84
2021/12/03 04:30:22;;;;;;;23.33;15.25;;;2.30;99.90;;;;;;6106367;23;20021;-83
2021/12/03 04:32:48;;;;;;;22.80;14.93;;;;;;;;;;6131147;23;20149;-84
2021/12/03 04:35:14;;;;;;;22.70;14.93;;;;;;;;;;6155480;23;20017;-83
2021/12/03 04:37:44;;;;;;;20.63;13.50;;;;;;;;;;6156007;23;20055;-83
2021/12/03 04:40:13;;;;;;;20.90;14.05;;;4.30;99.90;;;;;;6155497;23;20025;-83
2021/12/03 04:42:42;;;;;;;22.23;14.00;;;;;;;;;;6156415;23;20044;-83
2021/12/03 04:45:18;;;;;;;22.85;13.93;;;2.30;99.90;;;;;;6130864;23;20103;-84
2021/12/03 04:47:45;;;;;;;19.83;13.32;;;2.30;99.90;;;;;;6182450;23;20050;-83
2021/12/03 04:50:12;;;;;;;20.60;13.30;;;3.50;99.90;;;;;;6082385;23;20024;-83
2021/12/03 04:52:38;;;;;;;18.60;12.95;;;3.00;99.90;;;;;;6107473;23;20013;-84
2021/12/03 04:55:11;;;;;;;20.35;12.82;;;2.30;99.90;;;;;;6131092;23;20025;-83
2021/12/03 04:57:37;;;;;;;21.92;13.20;;;2.20;99.90;;;;;;6131172;23;20012;-83
2021/12/03 05:00:14;;;;;;;23.88;13.80;;;2.30;99.90;;;;;;6131049;23;20013;-83
2021/12/03 05:02:43;;;;;;;19.85;12.77;;;2.20;99.90;;;;;;6131156;23;20088;-83
2021/12/03 05:05:09;;;;;;;20.20;13.73;;;2.20;99.90;;;;;;6130860;23;20051;-83
2021/12/03 05:10:05;;;;;;;21.55;12.88;;;4.20;99.90;;;;;;6156112;23;20028;-83
2021/12/03 05:12:31;;;;;;;17.63;12.07;;;2.20;99.90;;;;;;6155709;23;20498;-83
2021/12/03 05:14:57;;;;;;;22.00;13.40;;;3.40;99.90;;;;;;6182397;23;20009;-83
2021/12/03 05:17:23;;;;;;;19.85;12.05;;;3.80;99.90;;;;;;6131246;23;20020;-82
2021/12/03 05:19:49;;;;;;;20.38;12.65;;;2.10;99.90;;;;;;6155300;23;20052;-83
2021/12/03 05:22:15;;;;;;;20.17;12.95;;;2.70;99.90;;;;;;6154209;23;20068;-83
2021/12/03 05:24:46;;;;;;;19.60;12.68;;;2.10;99.90;;;;;;6154924;23;20348;-83
2021/12/03 05:27:14;;;;;;;17.65;12.20;;;2.10;99.90;;;;;;6155490;23;20087;-83
2021/12/03 05:29:42;;;;;;;19.90;11.85;;;2.10;99.90;;;;;;6130829;23;20024;-83
2021/12/03 05:32:14;;;;;;;19.92;12.13;;;-0.80;99.90;;;;;;6154997;23;20017;-84
2021/12/03 05:34:40;;;;;;;18.37;12.20;;;2.00;99.90;;;;;;6131039;23;20027;-83
2021/12/03 05:37:09;;;;;;;17.90;11.48;;;2.10;99.90;;;;;;6131002;23;20048;-83
2021/12/03 05:39:39;;;;;;;19.05;11.93;;;2.10;99.90;;;;;;6179902;23;20088;-83
2021/12/03 05:42:05;;;;;;;21.75;12.18;;;2.10;99.90;;;;;;6130591;23;20013;-84
2021/12/03 05:44:31;;;;;;;19.52;11.82;;;2.10;99.90;;;;;;6181530;23;20020;-83
2021/12/03 05:46:58;;;;;;;17.83;12.10;;;2.10;99.90;;;;;;6179653;23;20016;-83
2021/12/03 05:49:25;;;;;;;18.85;12.32;;;2.10;99.90;;;;;;6130845;23;20013;-84
2021/12/03 05:51:51;;;;;;;18.92;12.02;;;2.10;99.90;;;;;;6154768;23;20138;-82
2021/12/03 05:54:19;;;;;;;18.63;12.52;;;3.80;99.90;;;;;;6181643;23;20006;-83
2021/12/03 05:56:44;;;;;;;20.35;12.27;;;2.10;99.90;;;;;;6130665;23;20013;-83
2021/12/03 05:59:10;;;;;;;17.08;11.23;;;2.90;99.90;;;;;;6130228;23;20017;-81
2021/12/03 06:01:36;;;;;;;18.77;11.98;;;2.10;99.90;;;;;;6154544;23;20080;-83
2021/12/03 06:04:02;;;;;;;20.63;12.40;;;1.50;99.90;;;;;;6153973;23;20361;-84
2021/12/03 06:06:28;;;;;;;19.98;11.60;;;2.10;99.90;;;;;;6154115;23;20017;-83
2021/12/03 06:08:59;;;;;;;18.70;12.38;;;2.20;99.90;;;;;;6105548;23;20023;-83
2021/12/03 06:11:26;;;;;;;18.60;11.55;;;2.20;99.90;;;;;;6130655;23;20067;-84
2021/12/03 06:13:52;;;;;;;17.08;12.00;;;2.10;99.90;;;;;;6129889;23;20067;-84
2021/12/03 06:16:18;;;;;;;18.85;11.55;;;3.50;99.90;;;;;;6154268;23;20036;-83
2021/12/03 06:18:46;;;;;;;20.90;12.23;;;2.20;99.90;;;;;;6181049;23;20017;-84
2021/12/03 06:21:15;;;;;;;21.17;12.25;;;2.10;99.90;;;;;;6130060;23;20009;-83
2021/12/03 06:23:42;;;;;;;17.42;12.23;;;1.80;99.90;;;;;;6154821;23;20021;-83
2021/12/03 06:26:10;;;;;;;22.15;12.30;;;2.20;99.90;;;;;;6105366;23;20464;-83
2021/12/03 06:28:38;;;;;;;18.30;11.82;;;2.20;99.90;;;;;;6154164;23;20021;-83
2021/12/03 06:31:04;;;;;;;20.48;12.50;;;2.60;99.90;;;;;;6154481;23;20373;-83
2021/12/03 06:33:31;;;;;;;20.88;12.77;;;2.20;99.90;;;;;;6105130;23;20017;-83
2021/12/03 06:35:57;;;;;;;19.70;13.07;;;3.30;99.90;;;;;;6128994;23;20036;-83
2021/12/03 06:38:23;;;;;;;20.27;12.20;;;2.20;99.90;;;;;;6131447;23;20028;-84
2021/12/03 06:40:50;;;;;;;18.30;12.18;;;2.30;99.90;;;;;;6154611;23;20086;-83
2021/12/03 06:43:17;;;;;;;19.67;12.20;;;3.30;99.90;;;;;;6105127;23;20024;-84
2021/12/03 06:45:43;;;;;;;18.85;12.20;;;3.00;99.90;;;;;;6152356;23;20092;-84
2021/12/03 06:48:09;;;;;;;17.98;11.43;;;2.40;99.90;;;;;;6130292;23;20039;-83
2021/12/03 06:50:35;;;;;;;20.20;12.32;;;3.70;99.90;;;;;;6155060;23;20092;-84
2021/12/03 06:53:07;;;;;;;16.73;11.50;;;;;;;;;;6155065;23;20013;-84
2021/12/03 06:55:43;;;;;;;19.52;11.55;;;2.60;99.90;;;;;;6154155;23;20013;-84
2021/12/03 06:58:12;;;;;;;22.58;11.20;;;2.50;99.90;;;;;;6132709;23;20467;-84
2021/12/03 07:00:38;;;;;;;20.60;12.13;;;2.70;99.90;;;;;;6104477;23;20009;-84
2021/12/03 07:03:06;;;;;;;19.58;11.63;;;2.60;99.90;;;;;;6177952;23;20341;-84
2021/12/03 07:05:32;;;;;;;20.67;11.25;;;3.00;99.90;;;;;;6153839;23;20645;-84
2021/12/03 07:08:01;;;;;;;18.63;11.27;;;2.70;99.90;;;;;;6104516;23;20028;-85
2021/12/03 07:10:27;;;;;;;17.23;11.13;;;2.70;99.90;;;;;;6128798;23;20140;-84
2021/12/03 07:12:55;;;;;;;18.67;11.57;;;2.60;99.90;;;;;;6179480;23;20483;-85
2021/12/03 07:15:21;;;;;;;19.80;11.70;;;3.30;99.90;;;;;;6105032;23;20096;-85
2021/12/03 07:17:51;;;;;;;17.05;10.55;;;;;;;;;;6128776;23;20048;-85
2021/12/03 07:20:20;;;;;;;19.38;10.95;;;2.60;99.90;;;;;;6153981;23;20040;-84
2021/12/03 07:22:50;;;;;;;18.30;10.43;;;3.70;99.90;;;;;;6129778;23;20472;-85
2021/12/03 07:25:25;;;;;;;18.80;9.95;;;2.60;99.90;;;;;;6127960;23;20451;-84
2021/12/03 07:27:51;;;;;;;18.13;9.70;;;2.60;99.90;;;;;;6180958;23;20017;-84
2021/12/03 07:30:19;;;;;;;18.48;9.15;;;3.60;99.90;;;;;;6104903;23;20027;-83
2021/12/03 07:32:47;;;;;;;17.17;9.23;;;3.40;99.90;;;;;;6153401;23;20021;-84
2021/12/03 07:35:13;;;;;;;16.67;9.05;;;2.60;99.90;;;;;;6105932;23;20364;-83
2021/12/03 07:37:39;;;;;;;14.60;8.50;;;2.60;99.90;;;;;;6129411;23;20025;-84
2021/12/03 07:40:07;;;;;;;16.10;8.27;;;3.20;99.90;;;;;;6129137;23;20462;-84
2021/12/03 07:42:35;;;;;;;13.18;7.72;;;2.60;99.90;;;;;;6129500;23;20025;-84
2021/12/03 07:45:06;;;;;;;13.82;7.97;;;2.60;99.90;;;;;;6128881;23;20017;-84
2021/12/03 07:47:32;;;;;;;15.57;8.00;;;3.20;99.90;;;;;;6108004;23;20052;-85
2021/12/03 07:49:57;;;;;;;16.88;7.65;;;2.70;99.90;;;;;;6155532;23;20040;-84
2021/12/03 07:52:24;;;;;;;14.55;7.35;;;2.70;99.90;;;;;;6155547;23;20020;-83
2021/12/03 07:54:53;;;;;;;15.23;6.88;;;3.60;99.90;;;;;;6131702;23;20027;-84
2021/12/03 07:57:18;;;;;;;13.15;6.15;;;2.70;99.90;;;;;;6156209;23;20020;-84
2021/12/03 07:59:45;;;;;;;14.85;6.97;;;2.80;99.90;;;;;;6131015;23;20531;-83
2021/12/03 08:02:11;;;;;;;12.95;6.03;;;4.20;99.90;;;;;;6082724;23;20279;-84
2021/12/03 08:04:39;;;;;;;13.45;6.40;;;2.80;99.90;;;;;;6154977;23;20021;-84
2021/12/03 08:07:05;;;;;;;16.33;6.88;;;2.80;99.90;;;;;;6131327;23;20027;-83
2021/12/03 08:09:35;;;;;;;15.18;6.15;;;2.80;99.90;;;;;;6155369;23;20021;-84
2021/12/03 08:12:01;;;;;;;14.65;6.38;;;3.10;99.90;;;;;;6155815;23;20051;-83
2021/12/03 08:14:29;;;;;;;13.80;6.38;;;2.90;99.90;;;;;;6180968;23;20094;-84
2021/12/03 08:16:55;;;;;;;14.52;6.20;;;2.90;99.90;;;;;;6131136;23;20021;-84
2021/12/03 08:19:24;;;;;;;15.52;6.38;;;3.30;99.90;;;;;;6131681;23;20072;-83
2021/12/03 08:21:50;;;;;;;13.73;6.32;;;2.90;99.90;;;;;;6106417;23;20020;-84
2021/12/03 08:24:16;;;;;;;16.00;6.47;;;2.90;99.90;;;;;;6131794;23;20016;-84
2021/12/03 08:26:42;;;;;;;15.75;6.85;;;3.00;99.90;;;;;;6156048;23;20103;-83
2021/12/03 08:29:12;;;;;;;13.27;6.13;;;3.50;99.90;;;;;;6155800;23;20467;-84
2021/12/03 08:31:41;;;;;;;13.52;6.13;;;3.00;99.90;;;;;;6133247;23;20383;-83
2021/12/03 08:34:07;;;;;;;15.50;6.22;;;3.00;99.90;;;;;;6131307;23;20055;-83
2021/12/03 08:36:36;;;;;;;13.93;6.85;;;3.10;99.90;;;;;;6106505;23;20029;-83
2021/12/03 08:39:03;;;;;;;15.95;6.57;;;3.10;99.90;;;;;;6130534;23;20017;-83
2021/12/03 08:41:35;;;;;;;13.82;6.55;;;3.10;99.90;;;;;;6130600;23;20088;-83
2021/12/03 08:44:08;;;;;;;16.13;6.18;;;3.10;99.90;;;;;;6182756;23;20013;-83
2021/12/03 08:46:36;;;;;;;17.77;6.82;;;3.10;99.90;;;;;;6083098;23;20486;-82
2021/12/03 08:49:08;;;;;;;15.65;6.18;;;3.20;99.90;;;;;;6181304;23;20017;-83
2021/12/03 08:56:49;;;;;;;16.90;7.07;;;;;;;;;;6181352;23;20026;-85
2021/12/03 08:59:15;;;;;;;15.40;7.15;;;3.30;99.90;;;;;;6156453;23;20021;-84
2021/12/03 09:01:43;;;;;;;15.20;7.18;;;3.30;99.90;;;;;;6155297;23;20507;-82
2021/12/03 09:04:09;;;;;;;16.83;7.75;;;3.40;99.90;;;;;;6105515;23;20020;-83
2021/12/03 09:06:35;;;;;;;15.98;7.72;;;3.40;99.90;;;;;;6154825;23;20013;-85
2021/12/03 09:09:06;;;;;;;17.15;8.65;;;3.40;99.90;;;;;;6154809;23;20031;-83
2021/12/03 09:11:35;;;;;;;15.68;7.68;;;3.40;99.90;;;;;;6131576;23;20552;-84
2021/12/03 09:14:05;;;;;;;17.70;8.68;;;3.40;99.90;;;;;;6154836;23;20013;-84
2021/12/03 09:16:35;;;;;;;17.35;8.95;;;3.40;99.90;;;;;;6182068;23;20088;-85
2021/12/03 09:19:02;;;;;;;21.05;9.50;;;3.40;99.90;;;;;;6155174;23;20052;-83
2021/12/03 09:21:32;;;;;;;20.50;10.32;;;3.50;99.90;;;;;;6179649;23;20020;-83
2021/12/03 09:24:08;;;;;;;19.80;10.00;;;3.50;99.90;;;;;;6155005;23;20013;-83
2021/12/03 09:26:39;;;;;;;18.20;10.48;;;5.50;99.90;;;;;;6131618;23;20299;-83
2021/12/03 09:29:09;;;;;;;20.00;10.30;;;3.50;99.90;;;;;;6129632;23;20052;-83
2021/12/03 09:31:37;;;;;;;24.70;11.32;;;3.40;99.90;;;;;;6153974;23;20346;-82
2021/12/03 09:34:09;;;;;;;24.98;11.75;;;3.60;99.90;;;;;;6153887;23;20453;-84
2021/12/03 09:36:41;;;;;;;22.80;11.48;;;3.60;99.90;;;;;;6181757;23;20036;-83
2021/12/03 09:39:14;;;;;;;21.67;12.02;;;3.60;99.90;;;;;;6154208;23;20075;-82
2021/12/03 09:41:47;;;;;;;20.77;11.85;;;3.60;99.90;;;;;;6131056;23;20077;-83
2021/12/03 09:44:13;;;;;;;22.25;11.70;;;3.60;99.90;;;;;;6130797;23;20041;-84
2021/12/03 09:46:41;;;;;;;24.52;12.57;;;3.60;99.90;;;;;;6155303;23;20017;-83
2021/12/03 09:52:03;;;;;;;22.67;12.85;;;3.70;99.90;;;;;;6179465;23;20017;-81
2021/12/03 09:57:41;;;;;;;24.05;12.60;;;;;;;;;;6086541;23;20315;-82
2021/12/03 10:03:18;;;;;;;21.00;12.20;;;3.80;99.90;;;;;;6179499;23;20017;-84
2021/12/03 10:11:48;;;;;;;25.67;12.25;;;3.80;99.90;;;;;;6178862;23;20025;-83
2021/12/03 10:14:32;;;;;;;19.83;12.65;;;3.90;99.90;;;;;;6153418;23;20025;-84
2021/12/03 10:23:18;;;;;;;21.17;11.77;;;3.90;99.90;;;;;;6145563;23;20027;-83
2021/12/03 10:39:30;;;;;;;23.30;10.70;;;3.90;99.90;;;;;;6129696;23;20314;-82
2021/12/03 10:48:10;;;;;;;24.17;10.07;;;4.00;99.90;;;;;;6180880;23;20665;-84
2021/12/03 10:53:26;;;;;;;21.42;8.48;;;4.10;99.90;;;;;;6178126;23;20043;-82
2021/12/03 11:15:31;;;;;;;16.35;5.80;;;4.20;99.90;;;;;;6173904;23;20453;-84
2021/12/03 11:29:47;;;;;;;13.50;4.90;;;4.40;99.90;;;;;;6127883;23;20380;-82
2021/12/03 12:01:22;;;;;;;13.77;5.38;;;4.10;99.90;;;;;;6152577;23;20014;-83
2021/12/03 12:04:02;;;;;;;12.68;4.72;;;4.00;99.90;;;;;;6130612;23;20096;-83
2021/12/03 13:23:38;;;;;;;12.77;4.78;;;3.90;99.90;;;;;;6145519;23;20017;-84
2021/12/03 14:00:01;;;;;;;12.00;4.78;;;4.10;99.90;;;;;;6179428;23;20075;-84
2021/12/03 14:11:31;;;;;;;12.40;4.88;;;6.00;99.90;;;;;;6178700;23;20048;-84
2021/12/03 14:26:38;;;;;;;12.15;5.13;;;4.20;99.90;;;;;;6179107;23;20021;-83
2021/12/03 14:36:36;;;;;;;11.82;4.93;;;4.20;99.90;;;;;;6177655;23;20353;-84
2021/12/03 14:44:52;;;;;;;11.95;4.75;;;5.20;99.90;;;;;;6178696;23;20021;-84
2021/12/03 14:53:38;;;;;;;14.85;4.70;;;4.40;99.90;;;;;;6118384;23;20022;-83
2021/12/03 14:56:14;;;;;;;14.00;5.03;;;4.40;99.90;;;;;;6148150;23;20020;-83
2021/12/03 15:01:59;;;;;;;13.35;5.35;;;4.30;99.90;;;;;;6152788;23;20013;-84
2021/12/03 15:07:09;;;;;;;14.45;5.25;;;4.40;99.90;;;;;;6180371;23;20337;-83
2021/12/03 15:09:41;;;;;;;12.75;5.25;;;4.50;99.90;;;;;;6153290;23;20067;-84
2021/12/03 15:26:15;;;;;;;11.57;5.50;;;4.70;99.90;;;;;;6179873;23;20075;-83
2021/12/03 15:31:07;;;;;;;12.70;5.75;;;4.60;99.90;;;;;;6157381;23;20032;-83
2021/12/03 15:33:49;;;;;;;13.90;5.82;;;4.60;99.90;;;;;;6129455;23;20024;-83
2021/12/03 15:36:22;;;;;;;13.45;5.75;;;4.60;99.90;;;;;;6153877;23;20024;-84
2021/12/03 15:39:33;;;;;;;14.65;6.68;;;4.60;99.90;;;;;;6129255;23;20021;-82
2021/12/03 16:08:49;;;;;;;12.77;7.75;;;4.60;99.90;;;;;;6159380;23;20116;-84
2021/12/03 16:13:51;;;;;;;18.85;8.88;;;4.60;99.90;;;;;;6180550;23;20017;-83
2021/12/03 16:19:26;;;;;;;13.38;8.85;;;4.60;99.90;;;;;;6155169;23;20048;-84
2021/12/03 16:44:00;;;;;;;15.05;10.05;;;5.70;99.90;;;;;;6180567;23;20044;-86
2021/12/03 16:46:54;;;;;;;14.95;10.52;;;4.60;99.90;;;;;;6158679;23;20009;-84
2021/12/03 16:52:11;;;;;;;15.38;11.05;;;4.60;99.90;;;;;;6125352;23;20017;-84
2021/12/03 16:54:44;;;;;;;14.82;10.88;;;4.80;99.90;;;;;;6131846;23;20013;-84
2021/12/03 16:57:11;;;;;;;17.03;11.10;;;4.60;99.90;;;;;;6131753;23;20381;-84
2021/12/03 16:59:43;;;;;;;17.23;12.18;;;4.70;99.90;;;;;;6082323;23;20298;-84
2021/12/03 17:02:18;;;;;;;15.45;10.57;;;4.60;99.90;;;;;;6107448;23;20017;-83
2021/12/03 17:47:51;;;;;;;;;;;4.70;99.90;;;;;;6179264;23;20452;-84
2021/12/03 17:50:43;;;;;;;17.48;12.38;;;;;;;;;;6128638;23;19912;-84
2021/12/03 17:53:55;;;;;;;18.48;12.98;;;4.70;99.90;;;;;;6109116;23;20028;-86
2021/12/03 17:57:04;;;;;;;19.58;13.57;;;;;;;;;;6129682;23;20020;-85
2021/12/03 17:59:34;;;;;;;;;;;4.70;99.90;;;;;;6177804;23;20084;-85
2021/12/03 18:02:20;;;;;;;19.98;14.02;;;4.70;99.90;;;;;;6179237;23;19970;-85
2021/12/03 18:05:19;;;;;;;18.40;13.57;;;;;;;;;;6129801;23;20017;-86
2021/12/03 18:08:47;;;;;;;18.20;13.05;;;4.70;99.90;;;;;;6150393;23;20017;-86
2021/12/03 18:56:47;;;;;;;22.48;16.25;;;4.80;99.90;;;;;;6019835;23;20018;-85
2021/12/03 18:59:14;;;;;;;23.05;16.10;;;4.80;99.90;;;;;;6092892;23;20027;-85
2021/12/03 19:01:41;;;;;;;22.65;15.85;;;4.80;99.90;;;;;;6157965;23;20021;-85
2021/12/03 19:07:03;;;;;;;23.00;16.40;;;4.80;99.90;;;;;;6152928;23;20382;-85
2021/12/03 19:09:36;;;;;;;23.33;16.73;;;6.10;99.90;;;;;;6114891;23;20131;-85
2021/12/03 19:14:33;;;;;;;23.63;17.13;;;4.80;99.90;;;;;;6155968;23;20021;-84
2021/12/03 19:16:59;;;;;;;24.70;17.75;;;4.90;99.90;;;;;;6133201;23;20044;-86
2021/12/03 19:19:27;;;;;;;21.77;15.88;;;4.90;99.90;;;;;;6159958;23;20448;-85
2021/12/03 19:21:55;;;;;;;22.42;16.40;;;5.60;99.90;;;;;;6180236;23;20345;-85
2021/12/03 19:24:26;;;;;;;25.70;17.45;;;4.90;99.90;;;;;;6131765;23;20525;-85
2021/12/03 19:26:52;;;;;;;24.08;16.92;;;4.90;99.90;;;;;;6133597;23;20025;-85
2021/12/03 19:29:20;;;;;;;23.42;16.98;;;4.90;99.90;;;;;;6155612;23;20059;-85
2021/12/03 19:31:49;;;;;;;24.33;16.65;;;4.90;99.90;;;;;;6155118;23;20044;-84
2021/12/03 19:34:16;;;;;;;25.02;17.85;;;4.90;99.90;;;;;;6130847;23;20071;-84
2021/12/03 19:36:45;;;;;;;23.77;17.05;;;4.90;99.90;;;;;;6155007;23;20052;-86
2021/12/03 19:39:14;;;;;;;26.25;17.92;;;4.90;99.90;;;;;;6130584;23;20020;-85
2021/12/03 19:41:56;;;;;;;26.58;18.65;;;5.00;99.90;;;;;;6181793;23;20016;-85
2021/12/03 19:44:33;;;;;;;26.73;18.63;;;4.90;99.90;;;;;;6134213;23;20448;-84
2021/12/03 19:46:59;;;;;;;28.33;19.02;;;4.90;99.90;;;;;;6132039;23;20021;-85
2021/12/03 19:51:57;;;;;;;28.77;18.60;;;5.00;99.90;;;;;;6119739;23;20043;-85
2021/12/03 19:54:32;;;;;;;25.67;18.17;;;5.00;99.90;;;;;;6193873;23;20053;-85
2021/12/03 19:57:10;;;;;;;26.13;18.92;;;;;;;;;;6143631;23;20058;-84
2021/12/03 19:59:42;;;;;;;25.05;17.85;;;5.00;99.90;;;;;;6167116;23;20044;-87
2021/12/03 20:02:17;;;;;;;27.60;19.17;;;5.00;99.90;;;;;;6192712;23;20028;-85
2021/12/03 20:05:00;;;;;;;29.83;19.50;;;4.80;99.90;;;;;;6167349;23;20251;-85
2021/12/03 20:07:44;;;;;;;27.02;19.20;;;;;;;;;;6150721;23;20024;-86
2021/12/03 20:10:35;;;;;;;28.70;20.42;;;5.00;99.90;;;;;;6167425;23;20009;-85
2021/12/03 20:13:21;;;;;;;29.65;21.27;;;5.00;99.90;;;;;;6143036;23;20017;-85
2021/12/03 20:19:12;;;;;;;29.38;19.77;;;;;;;;;;6020864;23;20022;-84
2021/12/03 20:21:45;;;;;;;31.90;21.67;;;;;;;;;;6020567;23;20033;-85
2021/12/03 20:36:11;;;;;;;33.05;22.08;;;5.00;99.90;;;;;;6191017;23;20032;-85